sensor_id;sensor_type;location;lat;lon;timestamp;temperature;humidity
18041;DHT22;9145;48.588;9.250;2023-07-20T00:00:08;21.30;99.90
18041;DHT22;9145;48.588;9.250;2023-07-20T00:02:38;21.30;99.90
18041;DHT22;9145;48.588;9.250;2023-07-20T00:05:05;21.10;99.90
18041;DHT22;9145;48.588;9.250;2023-07-20T00:07:32;21.00;99.90
18041;DHT22;9145;48.588;9.250;2023-07-20T00:09:59;21.00;99.90
18041;DHT22;9145;48.588;9.250;2023-07-20T00:12:25;20.90;99.90
18041;DHT22;9145;48.588;9.250;2023-07-20T00:14:52;20.80;99.90
18041;DHT22;9145;48.588;9.250;2023-07-20T00:17:20;20.80;99.90
18041;DHT22;9145;48.588;9.250;2023-07-20T00:19:47;20.70;99.90
18041;DHT22;9145;48.588;9.250;2023-07-20T00:22:14;20.60;99.90
18041;DHT22;9145;48.588;9.250;2023-07-20T00:24:41;20.60;99.90
18041;DHT22;9145;48.588;9.250;2023-07-20T00:27:08;20.60;99.90
18041;DHT22;9145;48.588;9.250;2023-07-20T00:29:34;20.60;99.90
18041;DHT22;9145;48.588;9.250;2023-07-20T00:32:02;20.50;99.90
18041;DHT22;9145;48.588;9.250;2023-07-20T00:34:31;20.50;99.90
18041;DHT22;9145;48.588;9.250;2023-07-20T00:36:58;20.50;99.90
18041;DHT22;9145;48.588;9.250;2023-07-20T00:39:25;20.40;99.90
18041;DHT22;9145;48.588;9.250;2023-07-20T00:41:52;20.40;99.90
18041;DHT22;9145;48.588;9.250;2023-07-20T00:44:18;20.40;99.90
18041;DHT22;9145;48.588;9.250;2023-07-20T00:46:45;20.40;99.90
18041;DHT22;9145;48.588;9.250;2023-07-20T00:49:13;20.30;99.90
18041;DHT22;9145;48.588;9.250;2023-07-20T00:51:42;20.20;99.90
18041;DHT22;9145;48.588;9.250;2023-07-20T00:54:09;20.20;99.90
18041;DHT22;9145;48.588;9.250;2023-07-20T00:56:36;20.20;99.90
18041;DHT22;9145;48.588;9.250;2023-07-20T00:59:03;20.20;99.90
18041;DHT22;9145;48.588;9.250;2023-07-20T01:01:30;20.20;99.90
18041;DHT22;9145;48.588;9.250;2023-07-20T01:03:57;20.10;99.90
18041;DHT22;9145;48.588;9.250;2023-07-20T01:06:30;20.10;99.90
18041;DHT22;9145;48.588;9.250;2023-07-20T01:09:10;20.10;99.90
18041;DHT22;9145;48.588;9.250;2023-07-20T01:11:45;20.10;99.90
18041;DHT22;9145;48.588;9.250;2023-07-20T01:14:16;20.10;99.90
18041;DHT22;9145;48.588;9.250;2023-07-20T01:16:43;20.10;99.90
18041;DHT22;9145;48.588;9.250;2023-07-20T01:19:11;20.00;99.90
18041;DHT22;9145;48.588;9.250;2023-07-20T01:21:42;20.00;99.90
18041;DHT22;9145;48.588;9.250;2023-07-20T01:24:48;20.00;99.90
18041;DHT22;9145;48.588;9.250;2023-07-20T01:30:29;19.80;99.90
18041;DHT22;9145;48.588;9.250;2023-07-20T01:33:02;19.80;99.90
18041;DHT22;9145;48.588;9.250;2023-07-20T01:35:30;19.80;99.90
18041;DHT22;9145;48.588;9.250;2023-07-20T01:37:58;19.80;99.90
18041;DHT22;9145;48.588;9.250;2023-07-20T01:40:26;19.70;99.90
18041;DHT22;9145;48.588;9.250;2023-07-20T01:42:53;19.70;99.90
18041;DHT22;9145;48.588;9.250;2023-07-20T01:45:20;19.60;99.90
18041;DHT22;9145;48.588;9.250;2023-07-20T01:47:47;19.60;99.90
18041;DHT22;9145;48.588;9.250;2023-07-20T01:50:15;19.50;99.90
18041;DHT22;9145;48.588;9.250;2023-07-20T01:52:41;19.40;99.90
18041;DHT22;9145;48.588;9.250;2023-07-20T01:55:08;19.40;99.90
18041;DHT22;9145;48.588;9.250;2023-07-20T01:57:35;19.40;99.90
18041;DHT22;9145;48.588;9.250;2023-07-20T02:00:03;19.30;99.90
18041;DHT22;9145;48.588;9.250;2023-07-20T02:02:31;19.20;99.90
18041;DHT22;9145;48.588;9.250;2023-07-20T02:04:57;19.30;99.90
18041;DHT22;9145;48.588;9.250;2023-07-20T02:07:26;19.20;99.90
18041;DHT22;9145;48.588;9.250;2023-07-20T02:09:52;19.20;99.90
18041;DHT22;9145;48.588;9.250;2023-07-20T02:12:19;19.10;99.90
18041;DHT22;9145;48.588;9.250;2023-07-20T02:14:46;19.10;99.90
18041;DHT22;9145;48.588;9.250;2023-07-20T02:17:13;19.10;99.90
18041;DHT22;9145;48.588;9.250;2023-07-20T02:19:41;19.10;99.90
18041;DHT22;9145;48.588;9.250;2023-07-20T02:22:07;19.10;99.90
18041;DHT22;9145;48.588;9.250;2023-07-20T02:24:36;19.20;99.90
18041;DHT22;9145;48.588;9.250;2023-07-20T02:27:03;19.10;99.90
18041;DHT22;9145;48.588;9.250;2023-07-20T02:29:30;19.10;99.90
18041;DHT22;9145;48.588;9.250;2023-07-20T02:31:56;19.10;99.90
18041;DHT22;9145;48.588;9.250;2023-07-20T02:34:23;19.10;99.90
18041;DHT22;9145;48.588;9.250;2023-07-20T02:36:50;19.10;99.90
18041;DHT22;9145;48.588;9.250;2023-07-20T02:39:17;19.10;99.90
18041;DHT22;9145;48.588;9.250;2023-07-20T02:41:45;19.10;99.90
18041;DHT22;9145;48.588;9.250;2023-07-20T02:44:12;19.10;99.90
18041;DHT22;9145;48.588;9.250;2023-07-20T02:46:38;19.10;99.90
18041;DHT22;9145;48.588;9.250;2023-07-20T02:49:05;19.10;99.90
18041;DHT22;9145;48.588;9.250;2023-07-20T02:51:32;19.00;99.90
18041;DHT22;9145;48.588;9.250;2023-07-20T02:53:59;19.10;99.90
18041;DHT22;9145;48.588;9.250;2023-07-20T02:56:26;19.10;99.90
18041;DHT22;9145;48.588;9.250;2023-07-20T02:58:54;19.10;99.90
18041;DHT22;9145;48.588;9.250;2023-07-20T03:01:22;19.10;99.90
18041;DHT22;9145;48.588;9.250;2023-07-20T03:03:49;19.10;99.90
18041;DHT22;9145;48.588;9.250;2023-07-20T03:06:16;19.10;99.90
18041;DHT22;9145;48.588;9.250;2023-07-20T03:08:43;19.00;99.90
18041;DHT22;9145;48.588;9.250;2023-07-20T03:11:13;19.00;99.90
18041;DHT22;9145;48.588;9.250;2023-07-20T03:13:40;18.90;99.90
18041;DHT22;9145;48.588;9.250;2023-07-20T03:16:09;19.00;99.90
18041;DHT22;9145;48.588;9.250;2023-07-20T03:18:36;18.90;99.90
18041;DHT22;9145;48.588;9.250;2023-07-20T03:21:04;18.80;99.90
18041;DHT22;9145;48.588;9.250;2023-07-20T03:23:31;18.70;99.90
18041;DHT22;9145;48.588;9.250;2023-07-20T03:25:58;18.60;99.90
18041;DHT22;9145;48.588;9.250;2023-07-20T03:28:25;18.60;99.90
18041;DHT22;9145;48.588;9.250;2023-07-20T03:30:53;18.50;99.90
18041;DHT22;9145;48.588;9.250;2023-07-20T03:33:22;18.50;99.90
18041;DHT22;9145;48.588;9.250;2023-07-20T03:35:48;18.40;99.90
18041;DHT22;9145;48.588;9.250;2023-07-20T03:38:15;18.40;99.90
18041;DHT22;9145;48.588;9.250;2023-07-20T03:40:49;18.30;99.90
18041;DHT22;9145;48.588;9.250;2023-07-20T03:43:16;18.30;99.90
18041;DHT22;9145;48.588;9.250;2023-07-20T03:45:43;18.30;99.90
18041;DHT22;9145;48.588;9.250;2023-07-20T03:48:10;18.40;99.90
18041;DHT22;9145;48.588;9.250;2023-07-20T03:50:39;18.40;99.90
18041;DHT22;9145;48.588;9.250;2023-07-20T03:53:05;18.40;99.90
18041;DHT22;9145;48.588;9.250;2023-07-20T03:55:32;18.50;99.90
18041;DHT22;9145;48.588;9.250;2023-07-20T03:57:59;18.50;99.90
18041;DHT22;9145;48.588;9.250;2023-07-20T04:00:27;18.40;99.90
18041;DHT22;9145;48.588;9.250;2023-07-20T04:02:53;18.40;99.90
18041;DHT22;9145;48.588;9.250;2023-07-20T04:05:20;18.40;99.90
18041;DHT22;9145;48.588;9.250;2023-07-20T04:07:49;18.50;99.90
18041;DHT22;9145;48.588;9.250;2023-07-20T04:10:16;18.40;99.90
18041;DHT22;9145;48.588;9.250;2023-07-20T04:12:43;18.40;99.90
18041;DHT22;9145;48.588;9.250;2023-07-20T04:15:11;18.40;99.90
18041;DHT22;9145;48.588;9.250;2023-07-20T04:17:38;18.50;99.90
18041;DHT22;9145;48.588;9.250;2023-07-20T04:20:07;18.50;99.90
18041;DHT22;9145;48.588;9.250;2023-07-20T04:22:34;18.50;99.90
18041;DHT22;9145;48.588;9.250;2023-07-20T04:25:02;18.50;99.90
18041;DHT22;9145;48.588;9.250;2023-07-20T04:27:29;18.50;99.90
18041;DHT22;9145;48.588;9.250;2023-07-20T04:29:57;18.50;99.90
18041;DHT22;9145;48.588;9.250;2023-07-20T04:32:24;18.60;99.90
18041;DHT22;9145;48.588;9.250;2023-07-20T04:34:51;18.60;99.90
18041;DHT22;9145;48.588;9.250;2023-07-20T04:37:17;18.50;99.90
18041;DHT22;9145;48.588;9.250;2023-07-20T04:39:44;18.60;99.90
18041;DHT22;9145;48.588;9.250;2023-07-20T04:42:12;18.60;99.90
18041;DHT22;9145;48.588;9.250;2023-07-20T04:44:39;18.60;99.90
18041;DHT22;9145;48.588;9.250;2023-07-20T04:47:06;18.60;99.90
18041;DHT22;9145;48.588;9.250;2023-07-20T04:49:34;18.70;99.90
18041;DHT22;9145;48.588;9.250;2023-07-20T04:52:01;18.70;99.90
18041;DHT22;9145;48.588;9.250;2023-07-20T04:54:28;18.70;99.90
18041;DHT22;9145;48.588;9.250;2023-07-20T04:56:55;18.70;99.90
18041;DHT22;9145;48.588;9.250;2023-07-20T04:59:23;18.70;99.90
18041;DHT22;9145;48.588;9.250;2023-07-20T05:01:50;18.80;99.90
18041;DHT22;9145;48.588;9.250;2023-07-20T05:04:16;18.90;99.90
18041;DHT22;9145;48.588;9.250;2023-07-20T05:06:43;19.00;99.90
18041;DHT22;9145;48.588;9.250;2023-07-20T05:09:10;19.00;99.90
18041;DHT22;9145;48.588;9.250;2023-07-20T05:11:37;19.10;99.90
18041;DHT22;9145;48.588;9.250;2023-07-20T05:14:04;19.00;99.90
18041;DHT22;9145;48.588;9.250;2023-07-20T05:16:32;19.00;99.90
18041;DHT22;9145;48.588;9.250;2023-07-20T05:18:58;19.00;99.90
18041;DHT22;9145;48.588;9.250;2023-07-20T05:21:25;19.00;99.90
18041;DHT22;9145;48.588;9.250;2023-07-20T05:23:52;19.10;99.90
18041;DHT22;9145;48.588;9.250;2023-07-20T05:26:19;19.10;99.90
18041;DHT22;9145;48.588;9.250;2023-07-20T05:28:46;19.20;99.90
18041;DHT22;9145;48.588;9.250;2023-07-20T05:31:12;19.20;99.90
18041;DHT22;9145;48.588;9.250;2023-07-20T05:33:41;19.30;99.90
18041;DHT22;9145;48.588;9.250;2023-07-20T05:36:07;19.30;99.90
18041;DHT22;9145;48.588;9.250;2023-07-20T05:38:34;19.40;99.90
18041;DHT22;9145;48.588;9.250;2023-07-20T05:41:01;19.40;99.90
18041;DHT22;9145;48.588;9.250;2023-07-20T05:43:29;19.40;99.90
18041;DHT22;9145;48.588;9.250;2023-07-20T05:45:56;19.40;99.90
18041;DHT22;9145;48.588;9.250;2023-07-20T05:48:23;19.40;99.90
18041;DHT22;9145;48.588;9.250;2023-07-20T05:50:51;19.50;99.90
18041;DHT22;9145;48.588;9.250;2023-07-20T05:53:19;19.60;99.90
18041;DHT22;9145;48.588;9.250;2023-07-20T05:55:52;19.60;99.90
18041;DHT22;9145;48.588;9.250;2023-07-20T05:58:19;19.60;99.90
18041;DHT22;9145;48.588;9.250;2023-07-20T06:00:47;19.60;99.90
18041;DHT22;9145;48.588;9.250;2023-07-20T06:03:14;19.70;99.90
18041;DHT22;9145;48.588;9.250;2023-07-20T06:05:42;19.80;99.90
18041;DHT22;9145;48.588;9.250;2023-07-20T06:08:10;19.70;99.90
18041;DHT22;9145;48.588;9.250;2023-07-20T06:10:37;19.80;99.90
18041;DHT22;9145;48.588;9.250;2023-07-20T06:13:04;19.70;99.90
18041;DHT22;9145;48.588;9.250;2023-07-20T06:15:32;19.70;99.90
18041;DHT22;9145;48.588;9.250;2023-07-20T06:18:01;19.80;99.90
18041;DHT22;9145;48.588;9.250;2023-07-20T06:20:29;19.80;99.90
18041;DHT22;9145;48.588;9.250;2023-07-20T06:22:56;19.80;99.90
18041;DHT22;9145;48.588;9.250;2023-07-20T06:25:24;19.80;99.90
18041;DHT22;9145;48.588;9.250;2023-07-20T06:27:51;19.90;99.90
18041;DHT22;9145;48.588;9.250;2023-07-20T06:30:19;19.90;99.90
18041;DHT22;9145;48.588;9.250;2023-07-20T06:32:46;19.90;99.90
18041;DHT22;9145;48.588;9.250;2023-07-20T06:35:13;20.00;99.90
18041;DHT22;9145;48.588;9.250;2023-07-20T06:37:39;20.00;99.90
18041;DHT22;9145;48.588;9.250;2023-07-20T06:40:07;20.10;99.90
18041;DHT22;9145;48.588;9.250;2023-07-20T06:42:36;20.00;99.90
18041;DHT22;9145;48.588;9.250;2023-07-20T06:45:04;20.00;99.90
18041;DHT22;9145;48.588;9.250;2023-07-20T06:47:31;20.00;99.90
18041;DHT22;9145;48.588;9.250;2023-07-20T06:49:58;20.10;99.90
18041;DHT22;9145;48.588;9.250;2023-07-20T06:52:24;20.10;99.90
18041;DHT22;9145;48.588;9.250;2023-07-20T06:54:51;20.20;99.90
18041;DHT22;9145;48.588;9.250;2023-07-20T06:57:18;20.30;99.90
18041;DHT22;9145;48.588;9.250;2023-07-20T06:59:46;20.30;99.90
18041;DHT22;9145;48.588;9.250;2023-07-20T07:02:14;20.40;99.90
18041;DHT22;9145;48.588;9.250;2023-07-20T07:04:41;20.50;99.90
18041;DHT22;9145;48.588;9.250;2023-07-20T07:07:07;20.40;99.90
18041;DHT22;9145;48.588;9.250;2023-07-20T07:09:35;20.60;99.90
18041;DHT22;9145;48.588;9.250;2023-07-20T07:12:02;20.60;99.90
18041;DHT22;9145;48.588;9.250;2023-07-20T07:14:28;20.70;99.90
18041;DHT22;9145;48.588;9.250;2023-07-20T07:16:57;20.70;99.90
18041;DHT22;9145;48.588;9.250;2023-07-20T07:19:24;20.70;99.90
18041;DHT22;9145;48.588;9.250;2023-07-20T07:21:50;20.80;99.90
18041;DHT22;9145;48.588;9.250;2023-07-20T07:24:17;20.90;99.90
18041;DHT22;9145;48.588;9.250;2023-07-20T07:26:44;21.10;99.90
18041;DHT22;9145;48.588;9.250;2023-07-20T07:29:11;21.10;99.90
18041;DHT22;9145;48.588;9.250;2023-07-20T07:31:38;21.10;99.90
18041;DHT22;9145;48.588;9.250;2023-07-20T07:34:06;21.10;99.90
18041;DHT22;9145;48.588;9.250;2023-07-20T07:36:33;21.20;99.90
18041;DHT22;9145;48.588;9.250;2023-07-20T07:39:00;21.20;99.90
18041;DHT22;9145;48.588;9.250;2023-07-20T07:41:27;21.20;99.90
18041;DHT22;9145;48.588;9.250;2023-07-20T07:43:53;21.00;99.90
18041;DHT22;9145;48.588;9.250;2023-07-20T07:46:20;21.00;99.90
18041;DHT22;9145;48.588;9.250;2023-07-20T07:48:47;21.10;99.90
18041;DHT22;9145;48.588;9.250;2023-07-20T07:51:15;21.20;99.90
18041;DHT22;9145;48.588;9.250;2023-07-20T07:53:42;21.10;99.90
18041;DHT22;9145;48.588;9.250;2023-07-20T07:56:09;21.20;99.90
18041;DHT22;9145;48.588;9.250;2023-07-20T07:58:36;21.30;99.90
18041;DHT22;9145;48.588;9.250;2023-07-20T08:01:03;21.30;99.90
18041;DHT22;9145;48.588;9.250;2023-07-20T08:03:30;21.40;99.90
18041;DHT22;9145;48.588;9.250;2023-07-20T08:05:57;21.60;99.90
18041;DHT22;9145;48.588;9.250;2023-07-20T08:08:25;21.70;99.90
18041;DHT22;9145;48.588;9.250;2023-07-20T08:10:53;21.80;99.90
18041;DHT22;9145;48.588;9.250;2023-07-20T08:13:20;21.60;99.90
18041;DHT22;9145;48.588;9.250;2023-07-20T08:15:49;21.70;99.90
18041;DHT22;9145;48.588;9.250;2023-07-20T08:18:17;21.70;99.90
18041;DHT22;9145;48.588;9.250;2023-07-20T08:20:44;21.60;99.90
18041;DHT22;9145;48.588;9.250;2023-07-20T08:23:12;21.80;99.90
18041;DHT22;9145;48.588;9.250;2023-07-20T08:25:40;21.70;99.90
18041;DHT22;9145;48.588;9.250;2023-07-20T08:28:10;21.80;99.90
18041;DHT22;9145;48.588;9.250;2023-07-20T08:30:40;21.80;99.90
18041;DHT22;9145;48.588;9.250;2023-07-20T08:33:08;21.80;99.90
18041;DHT22;9145;48.588;9.250;2023-07-20T08:35:35;21.90;99.90
18041;DHT22;9145;48.588;9.250;2023-07-20T08:38:02;21.90;99.90
18041;DHT22;9145;48.588;9.250;2023-07-20T08:40:30;22.00;99.90
18041;DHT22;9145;48.588;9.250;2023-07-20T08:42:58;22.00;99.90
18041;DHT22;9145;48.588;9.250;2023-07-20T08:45:26;22.00;99.90
18041;DHT22;9145;48.588;9.250;2023-07-20T08:47:55;22.20;99.90
18041;DHT22;9145;48.588;9.250;2023-07-20T08:50:26;22.30;99.90
18041;DHT22;9145;48.588;9.250;2023-07-20T08:52:56;22.20;99.90
18041;DHT22;9145;48.588;9.250;2023-07-20T08:55:24;22.30;99.90
18041;DHT22;9145;48.588;9.250;2023-07-20T08:57:53;22.30;99.90
18041;DHT22;9145;48.588;9.250;2023-07-20T09:00:23;22.40;99.90
18041;DHT22;9145;48.588;9.250;2023-07-20T09:02:50;22.60;99.90
18041;DHT22;9145;48.588;9.250;2023-07-20T09:05:17;22.60;99.90
18041;DHT22;9145;48.588;9.250;2023-07-20T09:07:45;22.70;99.90
18041;DHT22;9145;48.588;9.250;2023-07-20T09:10:12;22.80;99.80
18041;DHT22;9145;48.588;9.250;2023-07-20T09:12:40;22.90;99.30
18041;DHT22;9145;48.588;9.250;2023-07-20T09:15:08;23.10;99.90
18041;DHT22;9145;48.588;9.250;2023-07-20T09:17:37;23.20;97.30
18041;DHT22;9145;48.588;9.250;2023-07-20T09:20:05;23.20;97.60
18041;DHT22;9145;48.588;9.250;2023-07-20T09:22:37;23.00;98.00
18041;DHT22;9145;48.588;9.250;2023-07-20T09:25:06;22.90;98.50
18041;DHT22;9145;48.588;9.250;2023-07-20T09:27:37;23.20;99.00
18041;DHT22;9145;48.588;9.250;2023-07-20T09:30:05;23.10;97.60
18041;DHT22;9145;48.588;9.250;2023-07-20T09:32:39;22.90;97.60
18041;DHT22;9145;48.588;9.250;2023-07-20T09:35:12;22.90;98.00
18041;DHT22;9145;48.588;9.250;2023-07-20T09:37:41;22.90;98.70
18041;DHT22;9145;48.588;9.250;2023-07-20T09:40:09;23.00;98.60
18041;DHT22;9145;48.588;9.250;2023-07-20T09:42:36;22.90;98.50
18041;DHT22;9145;48.588;9.250;2023-07-20T09:45:07;22.90;98.40
18041;DHT22;9145;48.588;9.250;2023-07-20T09:47:36;22.90;98.70
18041;DHT22;9145;48.588;9.250;2023-07-20T09:50:05;23.20;98.20
18041;DHT22;9145;48.588;9.250;2023-07-20T09:52:37;23.40;98.90
18041;DHT22;9145;48.588;9.250;2023-07-20T09:55:06;23.60;97.90
18041;DHT22;9145;48.588;9.250;2023-07-20T09:57:33;23.70;96.90
18041;DHT22;9145;48.588;9.250;2023-07-20T10:00:01;23.70;95.00
18041;DHT22;9145;48.588;9.250;2023-07-20T10:02:33;23.90;95.40
18041;DHT22;9145;48.588;9.250;2023-07-20T10:05:04;24.00;97.30
18041;DHT22;9145;48.588;9.250;2023-07-20T10:07:36;24.00;94.80
18041;DHT22;9145;48.588;9.250;2023-07-20T10:10:07;23.80;95.90
18041;DHT22;9145;48.588;9.250;2023-07-20T10:12:37;23.70;96.50
18041;DHT22;9145;48.588;9.250;2023-07-20T10:15:11;23.80;96.00
18041;DHT22;9145;48.588;9.250;2023-07-20T10:17:43;23.90;95.20
18041;DHT22;9145;48.588;9.250;2023-07-20T10:20:16;24.00;94.70
18041;DHT22;9145;48.588;9.250;2023-07-20T10:22:48;24.30;95.40
18041;DHT22;9145;48.588;9.250;2023-07-20T10:25:16;24.60;97.10
18041;DHT22;9145;48.588;9.250;2023-07-20T10:27:44;24.60;94.60
18041;DHT22;9145;48.588;9.250;2023-07-20T10:30:11;24.90;94.60
18041;DHT22;9145;48.588;9.250;2023-07-20T10:32:40;25.00;92.50
18041;DHT22;9145;48.588;9.250;2023-07-20T10:35:16;24.70;92.90
18041;DHT22;9145;48.588;9.250;2023-07-20T10:37:48;24.90;93.00
18041;DHT22;9145;48.588;9.250;2023-07-20T10:40:31;25.10;92.40
18041;DHT22;9145;48.588;9.250;2023-07-20T10:43:03;24.90;91.50
18041;DHT22;9145;48.588;9.250;2023-07-20T10:45:41;25.10;91.70
18041;DHT22;9145;48.588;9.250;2023-07-20T10:48:14;25.30;91.20
18041;DHT22;9145;48.588;9.250;2023-07-20T10:50:43;25.30;91.70
18041;DHT22;9145;48.588;9.250;2023-07-20T10:53:11;25.30;91.30
18041;DHT22;9145;48.588;9.250;2023-07-20T10:55:38;25.20;90.70
18041;DHT22;9145;48.588;9.250;2023-07-20T10:58:09;24.70;90.40
18041;DHT22;9145;48.588;9.250;2023-07-20T11:00:37;24.50;90.20
18041;DHT22;9145;48.588;9.250;2023-07-20T11:03:04;24.90;91.10
18041;DHT22;9145;48.588;9.250;2023-07-20T11:05:40;25.20;90.60
18041;DHT22;9145;48.588;9.250;2023-07-20T11:08:12;25.00;89.10
18041;DHT22;9145;48.588;9.250;2023-07-20T11:10:39;25.20;90.70
18041;DHT22;9145;48.588;9.250;2023-07-20T11:13:20;25.50;90.20
18041;DHT22;9145;48.588;9.250;2023-07-20T11:16:01;25.40;87.70
18041;DHT22;9145;48.588;9.250;2023-07-20T11:18:29;25.30;88.80
18041;DHT22;9145;48.588;9.250;2023-07-20T11:20:56;24.80;87.70
18041;DHT22;9145;48.588;9.250;2023-07-20T11:23:24;24.90;90.10
18041;DHT22;9145;48.588;9.250;2023-07-20T11:25:52;25.40;90.20
18041;DHT22;9145;48.588;9.250;2023-07-20T11:28:19;25.80;86.50
18041;DHT22;9145;48.588;9.250;2023-07-20T11:30:52;25.90;86.00
18041;DHT22;9145;48.588;9.250;2023-07-20T11:33:19;25.90;87.70
18041;DHT22;9145;48.588;9.250;2023-07-20T11:35:48;25.80;85.30
18041;DHT22;9145;48.588;9.250;2023-07-20T11:38:16;26.10;87.90
18041;DHT22;9145;48.588;9.250;2023-07-20T11:40:45;26.40;85.10
18041;DHT22;9145;48.588;9.250;2023-07-20T11:43:13;26.60;85.50
18041;DHT22;9145;48.588;9.250;2023-07-20T11:45:40;26.50;84.40
18041;DHT22;9145;48.588;9.250;2023-07-20T11:48:06;26.70;85.50
18041;DHT22;9145;48.588;9.250;2023-07-20T11:50:38;27.10;86.30
18041;DHT22;9145;48.588;9.250;2023-07-20T11:53:06;27.10;82.80
18041;DHT22;9145;48.588;9.250;2023-07-20T11:55:33;26.90;81.40
18041;DHT22;9145;48.588;9.250;2023-07-20T11:58:05;27.00;84.50
18041;DHT22;9145;48.588;9.250;2023-07-20T12:00:33;26.80;83.70
18041;DHT22;9145;48.588;9.250;2023-07-20T12:03:00;26.80;83.10
18041;DHT22;9145;48.588;9.250;2023-07-20T12:05:27;26.90;87.70
18041;DHT22;9145;48.588;9.250;2023-07-20T12:07:54;26.90;84.60
18041;DHT22;9145;48.588;9.250;2023-07-20T12:10:25;26.80;84.30
18041;DHT22;9145;48.588;9.250;2023-07-20T12:12:52;26.70;82.70
18041;DHT22;9145;48.588;9.250;2023-07-20T12:15:25;26.50;85.90
18041;DHT22;9145;48.588;9.250;2023-07-20T12:17:57;26.50;85.90
18041;DHT22;9145;48.588;9.250;2023-07-20T12:20:28;26.60;83.40
18041;DHT22;9145;48.588;9.250;2023-07-20T12:23:00;26.40;83.00
18041;DHT22;9145;48.588;9.250;2023-07-20T12:25:36;26.60;82.00
18041;DHT22;9145;48.588;9.250;2023-07-20T12:28:05;26.70;86.00
18041;DHT22;9145;48.588;9.250;2023-07-20T12:30:33;26.60;81.50
18041;DHT22;9145;48.588;9.250;2023-07-20T12:33:00;26.50;82.20
18041;DHT22;9145;48.588;9.250;2023-07-20T12:35:27;26.80;81.20
18041;DHT22;9145;48.588;9.250;2023-07-20T12:37:54;27.10;84.50
18041;DHT22;9145;48.588;9.250;2023-07-20T12:40:21;27.40;80.90
18041;DHT22;9145;48.588;9.250;2023-07-20T12:42:48;27.20;81.30
18041;DHT22;9145;48.588;9.250;2023-07-20T12:45:14;27.20;80.90
18041;DHT22;9145;48.588;9.250;2023-07-20T12:47:43;27.00;81.40
18041;DHT22;9145;48.588;9.250;2023-07-20T12:50:10;26.30;81.60
18041;DHT22;9145;48.588;9.250;2023-07-20T12:52:37;26.20;82.80
18041;DHT22;9145;48.588;9.250;2023-07-20T12:55:06;26.40;82.80
18041;DHT22;9145;48.588;9.250;2023-07-20T12:57:33;26.60;80.80
18041;DHT22;9145;48.588;9.250;2023-07-20T13:00:00;27.10;84.80
18041;DHT22;9145;48.588;9.250;2023-07-20T13:02:27;27.30;80.30
18041;DHT22;9145;48.588;9.250;2023-07-20T13:04:55;27.10;79.10
18041;DHT22;9145;48.588;9.250;2023-07-20T13:07:29;27.10;84.00
18041;DHT22;9145;48.588;9.250;2023-07-20T13:09:57;27.10;81.50
18041;DHT22;9145;48.588;9.250;2023-07-20T13:12:26;27.10;80.40
18041;DHT22;9145;48.588;9.250;2023-07-20T13:14:52;27.00;81.60
18041;DHT22;9145;48.588;9.250;2023-07-20T13:17:19;27.20;80.10
18041;DHT22;9145;48.588;9.250;2023-07-20T13:19:46;26.90;78.60
18041;DHT22;9145;48.588;9.250;2023-07-20T13:22:14;27.10;84.80
18041;DHT22;9145;48.588;9.250;2023-07-20T13:24:41;27.50;81.50
18041;DHT22;9145;48.588;9.250;2023-07-20T13:27:08;27.80;80.60
18041;DHT22;9145;48.588;9.250;2023-07-20T13:29:35;27.50;79.70
18041;DHT22;9145;48.588;9.250;2023-07-20T13:32:02;27.00;78.70
18041;DHT22;9145;48.588;9.250;2023-07-20T13:34:29;27.20;81.10
18041;DHT22;9145;48.588;9.250;2023-07-20T13:36:57;27.50;78.90
18041;DHT22;9145;48.588;9.250;2023-07-20T13:39:25;27.70;78.00
18041;DHT22;9145;48.588;9.250;2023-07-20T13:41:53;27.80;79.50
18041;DHT22;9145;48.588;9.250;2023-07-20T13:44:20;28.10;81.70
18041;DHT22;9145;48.588;9.250;2023-07-20T13:46:47;28.90;78.10
18041;DHT22;9145;48.588;9.250;2023-07-20T13:49:14;29.60;80.90
18041;DHT22;9145;48.588;9.250;2023-07-20T13:51:41;29.90;74.50
18041;DHT22;9145;48.588;9.250;2023-07-20T13:54:08;30.30;78.10
18041;DHT22;9145;48.588;9.250;2023-07-20T13:56:37;30.60;77.70
18041;DHT22;9145;48.588;9.250;2023-07-20T13:59:04;30.90;74.50
18041;DHT22;9145;48.588;9.250;2023-07-20T14:01:31;30.50;72.50
18041;DHT22;9145;48.588;9.250;2023-07-20T14:03:58;30.10;73.80
18041;DHT22;9145;48.588;9.250;2023-07-20T14:06:25;30.60;75.50
18041;DHT22;9145;48.588;9.250;2023-07-20T14:08:52;30.90;72.80
18041;DHT22;9145;48.588;9.250;2023-07-20T14:11:19;30.20;72.50
18041;DHT22;9145;48.588;9.250;2023-07-20T14:13:47;29.50;75.10
18041;DHT22;9145;48.588;9.250;2023-07-20T14:16:14;29.10;74.60
18041;DHT22;9145;48.588;9.250;2023-07-20T14:18:41;29.10;75.30
18041;DHT22;9145;48.588;9.250;2023-07-20T14:21:08;29.70;79.70
18041;DHT22;9145;48.588;9.250;2023-07-20T14:23:34;30.10;73.80
18041;DHT22;9145;48.588;9.250;2023-07-20T14:26:01;30.20;75.50
18041;DHT22;9145;48.588;9.250;2023-07-20T14:28:30;30.40;74.80
18041;DHT22;9145;48.588;9.250;2023-07-20T14:30:58;30.50;73.30
18041;DHT22;9145;48.588;9.250;2023-07-20T14:33:25;30.90;74.00
18041;DHT22;9145;48.588;9.250;2023-07-20T14:35:52;31.30;71.20
18041;DHT22;9145;48.588;9.250;2023-07-20T14:38:19;31.40;73.40
18041;DHT22;9145;48.588;9.250;2023-07-20T14:40:46;31.30;70.60
18041;DHT22;9145;48.588;9.250;2023-07-20T14:43:13;31.40;71.00
18041;DHT22;9145;48.588;9.250;2023-07-20T14:45:40;31.60;68.60
18041;DHT22;9145;48.588;9.250;2023-07-20T14:48:08;31.00;70.50
18041;DHT22;9145;48.588;9.250;2023-07-20T14:50:35;31.20;71.60
18041;DHT22;9145;48.588;9.250;2023-07-20T14:53:02;31.50;71.90
18041;DHT22;9145;48.588;9.250;2023-07-20T14:55:29;31.80;71.00
18041;DHT22;9145;48.588;9.250;2023-07-20T14:57:56;31.40;69.10
18041;DHT22;9145;48.588;9.250;2023-07-20T15:00:23;31.40;70.70
18041;DHT22;9145;48.588;9.250;2023-07-20T15:02:50;31.00;70.00
18041;DHT22;9145;48.588;9.250;2023-07-20T15:05:23;31.40;71.10
18041;DHT22;9145;48.588;9.250;2023-07-20T15:07:52;31.70;68.00
18041;DHT22;9145;48.588;9.250;2023-07-20T15:10:19;32.10;68.00
18041;DHT22;9145;48.588;9.250;2023-07-20T15:12:46;31.80;67.40
18041;DHT22;9145;48.588;9.250;2023-07-20T15:15:13;31.70;67.70
18041;DHT22;9145;48.588;9.250;2023-07-20T15:17:43;31.80;69.10
18041;DHT22;9145;48.588;9.250;2023-07-20T15:20:11;32.10;70.70
18041;DHT22;9145;48.588;9.250;2023-07-20T15:22:40;32.80;69.00
18041;DHT22;9145;48.588;9.250;2023-07-20T15:25:08;32.60;65.70
18041;DHT22;9145;48.588;9.250;2023-07-20T15:27:36;32.10;67.10
18041;DHT22;9145;48.588;9.250;2023-07-20T15:30:03;31.70;66.60
18041;DHT22;9145;48.588;9.250;2023-07-20T15:32:30;31.80;67.40
18041;DHT22;9145;48.588;9.250;2023-07-20T15:34:57;31.50;66.30
18041;DHT22;9145;48.588;9.250;2023-07-20T15:37:24;31.00;67.30
18041;DHT22;9145;48.588;9.250;2023-07-20T15:39:52;30.60;69.30
18041;DHT22;9145;48.588;9.250;2023-07-20T15:42:19;30.10;68.70
18041;DHT22;9145;48.588;9.250;2023-07-20T15:44:47;29.90;68.60
18041;DHT22;9145;48.588;9.250;2023-07-20T15:47:14;29.90;70.80
18041;DHT22;9145;48.588;9.250;2023-07-20T15:49:41;30.20;72.90
18041;DHT22;9145;48.588;9.250;2023-07-20T15:52:08;30.40;69.50